createdAt,value
2022-11-12T00:00:59.061Z,7.30
2022-11-12T00:03:25.884Z,7.30
2022-11-12T00:05:53.344Z,7.30
2022-11-12T00:08:20.363Z,7.30
2022-11-12T00:10:47.314Z,7.30
2022-11-12T00:13:14.081Z,7.30
2022-11-12T00:15:41.004Z,7.40
2022-11-12T00:18:07.999Z,7.40
2022-11-12T00:20:34.781Z,7.30
2022-11-12T00:23:01.425Z,7.30
2022-11-12T00:25:28.544Z,7.30
2022-11-12T00:28:00.507Z,7.40
2022-11-12T00:30:27.135Z,7.40
2022-11-12T00:32:53.736Z,7.40
2022-11-12T00:35:20.384Z,7.50
2022-11-12T00:37:47.004Z,7.50
2022-11-12T00:40:13.833Z,7.50
2022-11-12T00:42:40.421Z,7.50
2022-11-12T00:45:07.534Z,7.50
2022-11-12T00:47:34.148Z,7.60
2022-11-12T00:50:00.776Z,7.60
2022-11-12T00:52:27.421Z,7.60
2022-11-12T00:54:54.057Z,7.50
2022-11-12T00:57:20.701Z,7.50
2022-11-12T00:59:47.332Z,7.50
2022-11-12T01:02:13.964Z,7.50
2022-11-12T01:04:40.645Z,7.60
2022-11-12T01:07:07.323Z,7.50
2022-11-12T01:09:34.019Z,7.60
2022-11-12T01:12:00.650Z,7.50
2022-11-12T01:14:27.351Z,7.50
2022-11-12T01:16:53.935Z,7.50
2022-11-12T01:19:20.685Z,7.50
2022-11-12T01:21:47.332Z,7.50
2022-11-12T01:24:14.002Z,7.60
2022-11-12T01:26:40.645Z,7.60
2022-11-12T01:29:07.416Z,7.60
2022-11-12T01:31:38.208Z,7.60
2022-11-12T01:34:07.512Z,7.60
2022-11-12T01:36:37.146Z,7.60
2022-11-12T01:39:05.667Z,7.60
2022-11-12T01:41:35.310Z,7.60
2022-11-12T01:44:16.851Z,7.50
2022-11-12T01:46:55.336Z,7.50
2022-11-12T01:49:47.227Z,7.50
2022-11-12T01:52:24.761Z,7.50
2022-11-12T01:54:55.040Z,7.40
2022-11-12T01:57:31.974Z,7.40
2022-11-12T02:00:05.684Z,7.40
2022-11-12T02:02:33.530Z,7.30
2022-11-12T02:05:01.356Z,7.30
2022-11-12T02:07:29.590Z,7.30
2022-11-12T02:09:56.324Z,7.30
2022-11-12T02:12:41.753Z,7.30
2022-11-12T02:15:08.767Z,7.30
2022-11-12T02:17:35.412Z,7.20
2022-11-12T02:20:02.839Z,7.20
2022-11-12T02:22:29.551Z,7.20
2022-11-12T02:24:56.190Z,7.20
2022-11-12T02:27:23.994Z,7.20
2022-11-12T02:29:50.726Z,7.20
2022-11-12T02:32:17.338Z,7.20
2022-11-12T02:34:44.019Z,7.30
2022-11-12T02:37:10.725Z,7.20
2022-11-12T02:39:37.358Z,7.20
2022-11-12T02:42:04.267Z,7.20
2022-11-12T02:44:31.475Z,7.20
2022-11-12T02:46:58.121Z,7.30
2022-11-12T02:49:24.757Z,7.30
2022-11-12T02:51:51.364Z,7.20
2022-11-12T02:54:17.969Z,7.20
2022-11-12T02:56:44.586Z,7.20
2022-11-12T02:59:11.217Z,7.20
2022-11-12T03:01:37.873Z,7.20
2022-11-12T03:04:04.547Z,7.20
2022-11-12T03:06:31.153Z,7.20
2022-11-12T03:08:57.777Z,7.10
2022-11-12T03:11:24.417Z,7.10
2022-11-12T03:13:51.050Z,7.10
2022-11-12T03:16:17.681Z,7.10
2022-11-12T03:18:44.309Z,7.00
2022-11-12T03:21:10.938Z,7.00
2022-11-12T03:23:37.571Z,7.00
2022-11-12T03:26:05.128Z,7.00
2022-11-12T03:28:31.759Z,7.00
2022-11-12T03:30:59.950Z,7.00
2022-11-12T03:33:26.790Z,6.90
2022-11-12T03:35:53.437Z,6.90
2022-11-12T03:38:20.200Z,6.90
2022-11-12T03:40:46.842Z,6.80
2022-11-12T03:43:13.472Z,6.80
2022-11-12T03:45:40.203Z,6.90
2022-11-12T03:48:06.976Z,6.90
2022-11-12T03:50:33.619Z,6.90
2022-11-12T03:53:00.278Z,6.90
2022-11-12T03:55:28.616Z,6.90
2022-11-12T03:57:56.737Z,6.90
2022-11-12T04:00:25.364Z,6.90
2022-11-12T04:02:51.999Z,6.90
2022-11-12T04:05:37.851Z,6.90
2022-11-12T04:08:33.412Z,6.90
2022-11-12T04:11:00.638Z,7.00
2022-11-12T04:13:30.081Z,7.00
2022-11-12T04:16:25.789Z,7.00
2022-11-12T04:19:13.708Z,7.00
2022-11-12T04:21:50.930Z,7.00
2022-11-12T04:24:54.228Z,7.00
2022-11-12T04:27:24.150Z,7.00
2022-11-12T04:30:09.848Z,6.90
2022-11-12T04:32:38.882Z,6.90
2022-11-12T04:35:07.463Z,7.00
2022-11-12T04:37:45.041Z,7.00
2022-11-12T04:40:34.904Z,7.00
2022-11-12T04:43:21.739Z,6.90
2022-11-12T04:45:51.315Z,6.90
2022-11-12T04:48:18.231Z,6.90
2022-11-12T04:50:49.195Z,6.90
2022-11-12T04:53:15.959Z,7.00
2022-11-12T04:55:42.580Z,7.00
2022-11-12T04:58:09.262Z,7.00
2022-11-12T05:00:36.072Z,7.00
2022-11-12T05:03:02.689Z,7.00
2022-11-12T05:05:33.617Z,6.90
2022-11-12T05:08:01.831Z,6.80
2022-11-12T05:10:29.074Z,6.70
2022-11-12T05:12:55.961Z,6.70
2022-11-12T05:15:23.078Z,6.70
2022-11-12T05:17:49.905Z,6.70
2022-11-12T05:20:17.142Z,6.70
2022-11-12T05:22:54.327Z,6.70
2022-11-12T05:25:30.400Z,6.70
2022-11-12T05:27:57.046Z,6.70
2022-11-12T05:30:23.652Z,6.70
2022-11-12T05:32:50.277Z,6.70
2022-11-12T05:35:17.073Z,6.70
2022-11-12T05:37:44.085Z,6.80
2022-11-12T05:40:11.106Z,6.80
2022-11-12T05:42:37.733Z,6.80
2022-11-12T05:45:04.873Z,6.70
2022-11-12T05:47:31.482Z,6.70
2022-11-12T05:49:58.080Z,6.70
2022-11-12T05:52:24.672Z,6.60
2022-11-12T05:54:51.301Z,6.60
2022-11-12T05:57:18.006Z,6.60
2022-11-12T05:59:44.618Z,6.60
2022-11-12T06:02:11.327Z,6.60
2022-11-12T06:04:38.025Z,6.50
2022-11-12T06:07:04.712Z,6.50
2022-11-12T06:09:31.399Z,6.50
2022-11-12T06:11:57.996Z,6.40
2022-11-12T06:14:24.608Z,6.40
2022-11-12T06:16:51.226Z,6.40
2022-11-12T06:19:17.852Z,6.40
2022-11-12T06:21:44.444Z,6.50
2022-11-12T06:24:11.369Z,6.40
2022-11-12T06:26:38.282Z,6.50
2022-11-12T06:29:04.934Z,6.50
2022-11-12T06:31:31.563Z,6.50
2022-11-12T06:33:58.171Z,6.50
2022-11-12T06:36:24.835Z,6.50
2022-11-12T06:38:51.481Z,6.50
2022-11-12T06:41:18.203Z,6.50
2022-11-12T06:43:44.847Z,6.50
2022-11-12T06:46:14.868Z,6.50
2022-11-12T06:48:41.601Z,6.60
2022-11-12T06:51:11.712Z,6.60
2022-11-12T06:53:38.696Z,6.60
2022-11-12T06:56:06.859Z,6.70
2022-11-12T06:58:34.064Z,6.70
2022-11-12T07:01:11.781Z,6.70
2022-11-12T07:03:39.711Z,6.80
2022-11-12T07:06:09.274Z,6.80
2022-11-12T07:08:36.010Z,6.80
2022-11-12T07:11:03.262Z,6.80
2022-11-12T07:13:31.667Z,6.80
2022-11-12T07:16:00.149Z,6.70
2022-11-12T07:18:28.449Z,6.80
2022-11-12T07:20:59.792Z,6.80
2022-11-12T07:23:27.279Z,6.70
2022-11-12T07:26:24.191Z,6.80
2022-11-12T07:28:52.312Z,6.80
2022-11-12T07:31:20.226Z,6.80
2022-11-12T07:33:48.925Z,6.80
2022-11-12T07:36:20.600Z,6.90
2022-11-12T07:38:47.579Z,6.90
2022-11-12T07:41:22.647Z,7.00
2022-11-12T07:43:51.466Z,7.00
2022-11-12T07:46:24.776Z,7.00
2022-11-12T07:48:52.019Z,7.00
2022-11-12T07:51:26.830Z,7.00
2022-11-12T07:53:59.334Z,7.00
2022-11-12T07:56:27.554Z,7.00
2022-11-12T07:58:54.207Z,7.00
2022-11-12T08:01:30.624Z,6.90
2022-11-12T08:03:58.596Z,6.90
2022-11-12T08:06:26.598Z,6.90
2022-11-12T08:08:54.228Z,6.90
2022-11-12T08:11:21.078Z,6.90
2022-11-12T08:13:47.868Z,6.90
2022-11-12T08:16:14.831Z,6.90
2022-11-12T08:18:43.422Z,6.80
2022-11-12T08:21:13.328Z,6.80
2022-11-12T08:23:40.679Z,6.80
2022-11-12T08:26:10.654Z,6.80
2022-11-12T08:28:38.092Z,6.80
2022-11-12T08:31:10.622Z,6.80
2022-11-12T08:33:37.481Z,6.70
2022-11-12T08:36:05.551Z,6.80
2022-11-12T08:38:32.684Z,6.80
2022-11-12T08:41:07.018Z,6.90
2022-11-12T08:43:34.160Z,6.90
2022-11-12T08:46:02.094Z,7.00
2022-11-12T08:48:30.237Z,7.10
2022-11-12T08:50:57.827Z,7.10
2022-11-12T08:53:25.453Z,7.20
2022-11-12T08:55:56.457Z,7.10
2022-11-12T08:58:24.613Z,7.10
2022-11-12T09:00:52.560Z,7.20
2022-11-12T09:03:22.233Z,7.20
2022-11-12T09:05:49.838Z,7.20
2022-11-12T09:08:19.796Z,7.10
2022-11-12T09:10:47.231Z,7.20
2022-11-12T09:13:14.538Z,7.20
2022-11-12T09:15:41.251Z,7.20
2022-11-12T09:18:12.174Z,7.30
2022-11-12T09:20:38.830Z,7.30
2022-11-12T09:23:08.875Z,7.40
2022-11-12T09:25:37.026Z,7.40
2022-11-12T09:28:15.065Z,7.50
2022-11-12T09:30:45.388Z,7.60
2022-11-12T09:33:15.629Z,7.70
2022-11-12T09:35:42.958Z,7.80
2022-11-12T09:38:09.621Z,7.80
2022-11-12T09:40:51.529Z,7.90
2022-11-12T09:43:32.519Z,8.00
2022-11-12T09:46:33.853Z,8.00
2022-11-12T09:49:16.227Z,8.00
2022-11-12T09:51:52.342Z,8.10
2022-11-12T09:54:23.439Z,8.20
2022-11-12T09:56:51.051Z,8.30
2022-11-12T09:59:17.984Z,8.30
2022-11-12T10:01:59.855Z,8.30
2022-11-12T10:04:29.523Z,8.30
2022-11-12T10:07:34.583Z,8.30
2022-11-12T10:10:04.164Z,8.30
2022-11-12T10:12:44.713Z,8.30
2022-11-12T10:15:55.393Z,8.40
2022-11-12T10:18:34.112Z,8.50
2022-11-12T10:21:11.513Z,8.50
2022-11-12T10:23:47.172Z,8.50
2022-11-12T10:26:20.016Z,8.50
2022-11-12T10:29:08.496Z,8.50
2022-11-12T10:31:35.208Z,8.60
2022-11-12T10:34:14.066Z,8.60
2022-11-12T10:36:48.768Z,8.60
2022-11-12T10:39:47.595Z,8.60
2022-11-12T10:42:19.317Z,8.70
2022-11-12T10:44:47.024Z,8.70
2022-11-12T10:47:33.058Z,8.70
2022-11-12T10:50:18.563Z,8.80
2022-11-12T10:52:56.229Z,8.90
2022-11-12T10:55:26.227Z,8.90
2022-11-12T10:58:20.549Z,9.00
2022-11-12T11:01:03.499Z,9.00
2022-11-12T11:03:44.251Z,8.90
2022-11-12T11:06:16.839Z,8.90
2022-11-12T11:08:45.289Z,9.00
2022-11-12T11:11:24.634Z,8.90
2022-11-12T11:13:55.775Z,9.00
2022-11-12T11:16:24.581Z,9.10
2022-11-12T11:18:57.887Z,9.10
2022-11-12T11:21:41.716Z,9.20
2022-11-12T11:24:33.348Z,9.30
2022-11-12T11:27:34.878Z,9.30
2022-11-12T11:30:09.280Z,9.30
2022-11-12T11:32:54.939Z,9.40
2022-11-12T11:35:38.863Z,9.40
2022-11-12T11:38:30.564Z,9.40
2022-11-12T11:41:30.085Z,9.40
2022-11-12T11:44:12.693Z,9.40
2022-11-12T11:47:02.489Z,9.40
2022-11-12T11:49:38.172Z,9.40
2022-11-12T11:52:32.313Z,9.40
2022-11-12T11:55:09.133Z,9.40
2022-11-12T11:57:46.698Z,9.40
2022-11-12T12:00:20.842Z,9.40
2022-11-12T12:02:47.418Z,9.50
2022-11-12T12:05:47.586Z,9.30
2022-11-12T12:08:36.483Z,9.40
2022-11-12T12:11:08.899Z,9.40
2022-11-12T12:14:06.355Z,9.50
2022-11-12T12:16:48.059Z,9.60
2022-11-12T12:19:33.273Z,9.70
2022-11-12T12:22:04.413Z,9.80
2022-11-12T12:24:39.321Z,9.80
2022-11-12T12:27:13.300Z,9.90
2022-11-12T12:29:47.615Z,9.90
2022-11-12T12:32:21.699Z,9.90
2022-11-12T12:35:02.208Z,9.90
2022-11-12T12:37:39.319Z,10.00
2022-11-12T12:40:20.769Z,10.00
2022-11-12T12:43:07.444Z,10.00
2022-11-12T12:45:41.587Z,9.90
2022-11-12T12:48:19.683Z,9.90
2022-11-12T12:50:48.315Z,9.80
2022-11-12T12:53:14.937Z,9.80
2022-11-12T12:56:06.796Z,9.70
2022-11-12T12:58:49.750Z,9.60
2022-11-12T13:01:22.493Z,9.50
2022-11-12T13:03:55.233Z,9.50
2022-11-12T13:06:24.725Z,9.50
2022-11-12T13:08:53.776Z,9.50
2022-11-12T13:12:01.072Z,9.40
2022-11-12T13:14:36.752Z,9.50
2022-11-12T13:17:10.968Z,9.40
2022-11-12T13:19:58.674Z,9.40
2022-11-12T13:22:25.256Z,9.50
2022-11-12T13:25:03.710Z,9.50
2022-11-12T13:27:45.487Z,9.50
2022-11-12T13:30:16.267Z,9.50
2022-11-12T13:32:51.798Z,9.50
2022-11-12T13:35:38.528Z,9.50
2022-11-12T13:38:08.450Z,9.50
2022-11-12T13:40:55.443Z,9.40
2022-11-12T13:43:33.468Z,9.40
2022-11-12T13:46:26.250Z,9.40
2022-11-12T13:49:10.034Z,9.30
2022-11-12T13:51:45.319Z,9.30
2022-11-12T13:54:28.296Z,9.30
2022-11-12T13:56:55.108Z,9.20
2022-11-12T13:59:24.708Z,9.20
2022-11-12T14:01:51.626Z,9.20
2022-11-12T14:04:21.023Z,9.20
2022-11-12T14:06:49.593Z,9.10
2022-11-12T14:09:19.258Z,9.00
2022-11-12T14:11:57.068Z,9.00
2022-11-12T14:14:30.230Z,9.00
2022-11-12T14:17:19.526Z,9.00
2022-11-12T14:20:03.817Z,9.10
2022-11-12T14:22:41.009Z,9.10
2022-11-12T14:25:16.628Z,9.10
2022-11-12T14:27:43.398Z,9.10
2022-11-12T14:30:16.086Z,9.10
2022-11-12T14:32:45.985Z,9.10
2022-11-12T14:35:29.793Z,9.10
2022-11-12T14:38:22.647Z,9.00
2022-11-12T14:40:53.504Z,9.00
2022-11-12T14:43:47.918Z,9.00
2022-11-12T14:46:27.089Z,9.00
2022-11-12T14:48:56.403Z,9.00
2022-11-12T14:51:28.180Z,8.90
2022-11-12T14:54:06.404Z,8.90
2022-11-12T14:56:47.447Z,8.80
2022-11-12T14:59:15.792Z,8.80
2022-11-12T15:02:36.029Z,8.80
2022-11-12T15:05:11.688Z,8.70
2022-11-12T15:07:58.001Z,8.70
2022-11-12T15:10:34.263Z,8.70
2022-11-12T15:13:19.718Z,8.80
2022-11-12T15:16:18.016Z,8.70
2022-11-12T15:18:55.607Z,8.70
2022-11-12T15:21:26.362Z,8.60
2022-11-12T15:24:06.555Z,8.60
2022-11-12T15:26:35.911Z,8.60
2022-11-12T15:29:12.355Z,8.50
2022-11-12T15:31:49.770Z,8.50
2022-11-12T15:34:40.615Z,8.50
2022-11-12T15:37:19.691Z,8.60
2022-11-12T15:39:52.954Z,8.60
2022-11-12T15:42:27.646Z,8.50
2022-11-12T15:45:00.492Z,8.50
2022-11-12T15:47:27.241Z,8.60
2022-11-12T15:49:55.863Z,8.60
2022-11-12T15:52:23.077Z,8.60
2022-11-12T15:54:49.744Z,8.60
2022-11-12T15:57:28.264Z,8.60
2022-11-12T16:00:08.615Z,8.50
2022-11-12T16:02:35.573Z,8.50
2022-11-12T16:05:02.397Z,8.60
2022-11-12T16:07:29.053Z,8.60
2022-11-12T16:09:55.779Z,8.60
2022-11-12T16:12:22.428Z,8.60
2022-11-12T16:14:49.088Z,8.60
2022-11-12T16:17:17.356Z,8.60
2022-11-12T16:19:44.036Z,8.60
2022-11-12T16:22:13.759Z,8.60
2022-11-12T16:24:43.991Z,8.50
2022-11-12T16:27:13.993Z,8.50
2022-11-12T16:29:40.742Z,8.50
2022-11-12T16:32:11.581Z,8.40
2022-11-12T16:34:38.387Z,8.50
2022-11-12T16:37:05.249Z,8.50
2022-11-12T16:39:32.612Z,8.50
2022-11-12T16:41:59.266Z,8.60
2022-11-12T16:44:26.071Z,8.50
2022-11-12T16:46:52.759Z,8.50
2022-11-12T16:49:21.214Z,8.60
2022-11-12T16:51:48.890Z,8.60
2022-11-12T16:54:15.560Z,8.50
2022-11-12T16:56:42.163Z,8.60
2022-11-12T16:59:11.909Z,8.60
2022-11-12T17:01:38.592Z,8.60
2022-11-12T17:04:05.294Z,8.60
2022-11-12T17:06:38.193Z,8.50
2022-11-12T17:09:10.254Z,8.50
2022-11-12T17:11:37.575Z,8.50
2022-11-12T17:14:05.914Z,8.50
2022-11-12T17:16:32.563Z,8.50
2022-11-12T17:19:01.586Z,8.50
2022-11-12T17:21:28.322Z,8.50
2022-11-12T17:23:56.233Z,8.50
2022-11-12T17:26:23.184Z,8.50
2022-11-12T17:28:55.539Z,8.50
2022-11-12T17:31:25.963Z,8.40
2022-11-12T17:33:53.688Z,8.40
2022-11-12T17:36:22.767Z,8.40
2022-11-12T17:38:53.355Z,8.40
2022-11-12T17:41:20.177Z,8.50
2022-11-12T17:43:46.997Z,8.50
2022-11-12T17:46:14.773Z,8.50
2022-11-12T17:48:41.534Z,8.50
2022-11-12T17:51:12.441Z,8.50
2022-11-12T17:53:39.680Z,8.50
2022-11-12T17:56:07.593Z,8.40
2022-11-12T17:58:34.282Z,8.40
2022-11-12T18:01:05.212Z,8.40
2022-11-12T18:03:32.003Z,8.40
2022-11-12T18:06:00.146Z,8.40
2022-11-12T18:08:26.895Z,8.40
2022-11-12T18:10:53.578Z,8.40
2022-11-12T18:13:20.395Z,8.40
2022-11-12T18:15:47.125Z,8.50
2022-11-12T18:18:14.016Z,8.50
2022-11-12T18:20:42.424Z,8.50
2022-11-12T18:23:10.316Z,8.50
2022-11-12T18:25:38.284Z,8.50
2022-11-12T18:28:06.033Z,8.50
2022-11-12T18:30:33.364Z,8.40
2022-11-12T18:33:00.609Z,8.40
2022-11-12T18:35:29.983Z,8.40
2022-11-12T18:37:57.441Z,8.40
2022-11-12T18:40:24.282Z,8.40
2022-11-12T18:42:50.924Z,8.40
2022-11-12T18:45:17.666Z,8.40
2022-11-12T18:47:44.468Z,8.40
2022-11-12T18:50:11.124Z,8.40
2022-11-12T18:52:37.782Z,8.40
2022-11-12T18:55:05.160Z,8.30
2022-11-12T18:57:31.803Z,8.40
2022-11-12T18:59:58.425Z,8.40
2022-11-12T19:02:25.085Z,8.30
2022-11-12T19:04:51.793Z,8.30
2022-11-12T19:07:18.514Z,8.30
2022-11-12T19:09:45.226Z,8.30
2022-11-12T19:12:11.859Z,8.20
2022-11-12T19:14:38.528Z,8.20
2022-11-12T19:17:05.153Z,8.20
2022-11-12T19:19:31.817Z,8.20
2022-11-12T19:21:58.416Z,8.20
2022-11-12T19:24:25.051Z,8.20
2022-11-12T19:26:51.679Z,8.20
2022-11-12T19:29:18.317Z,8.10
2022-11-12T19:31:45.949Z,8.10
2022-11-12T19:34:12.568Z,8.20
2022-11-12T19:36:39.226Z,8.20
2022-11-12T19:39:05.945Z,8.20
2022-11-12T19:41:32.584Z,8.20
2022-11-12T19:43:59.206Z,8.20
2022-11-12T19:46:25.791Z,8.20
2022-11-12T19:48:52.431Z,8.20
2022-11-12T19:51:19.050Z,8.20
2022-11-12T19:53:45.739Z,8.30
2022-11-12T19:56:16.840Z,8.20
2022-11-12T19:58:47.195Z,8.20
2022-11-12T20:01:16.566Z,8.10
2022-11-12T20:03:43.441Z,8.10
2022-11-12T20:06:11.885Z,8.10
2022-11-12T20:08:38.896Z,8.10
2022-11-12T20:11:05.732Z,8.10
2022-11-12T20:13:32.422Z,8.10
2022-11-12T20:15:59.291Z,8.00
2022-11-12T20:18:26.487Z,7.90
2022-11-12T20:20:55.633Z,7.80
2022-11-12T20:23:23.586Z,7.90
2022-11-12T20:25:51.108Z,7.90
2022-11-12T20:28:18.108Z,8.00
2022-11-12T20:30:45.354Z,8.00
2022-11-12T20:33:15.254Z,7.90
2022-11-12T20:35:41.867Z,7.80
2022-11-12T20:38:08.569Z,7.80
2022-11-12T20:40:35.279Z,7.80
2022-11-12T20:43:01.952Z,7.80
2022-11-12T20:45:28.601Z,7.80
2022-11-12T20:47:56.467Z,7.80
2022-11-12T20:50:23.859Z,7.80
2022-11-12T20:52:50.769Z,7.90
2022-11-12T20:55:17.645Z,7.90
2022-11-12T20:57:44.591Z,7.90
2022-11-12T21:00:14.096Z,7.90
2022-11-12T21:02:42.087Z,7.80
2022-11-12T21:05:08.880Z,7.70
2022-11-12T21:07:35.608Z,7.80
2022-11-12T21:10:02.779Z,7.80
2022-11-12T21:12:30.687Z,7.80
2022-11-12T21:14:57.303Z,7.70
2022-11-12T21:17:23.930Z,7.70
2022-11-12T21:19:50.566Z,7.70
2022-11-12T21:22:17.235Z,7.70
2022-11-12T21:24:43.993Z,7.70
2022-11-12T21:27:11.718Z,7.80
2022-11-12T21:29:38.419Z,7.80
2022-11-12T21:32:05.302Z,7.80
2022-11-12T21:34:32.107Z,7.80
2022-11-12T21:36:58.733Z,7.90
2022-11-12T21:39:25.379Z,7.90
2022-11-12T21:41:53.930Z,7.90
2022-11-12T21:44:21.175Z,7.90
2022-11-12T21:46:47.972Z,7.90
2022-11-12T21:49:14.635Z,7.90
2022-11-12T21:51:41.223Z,7.90
2022-11-12T21:54:08.148Z,7.90
2022-11-12T21:56:34.939Z,7.90
2022-11-12T21:59:03.712Z,7.90
2022-11-12T22:01:33.338Z,7.90
2022-11-12T22:04:01.008Z,7.90
2022-11-12T22:06:29.596Z,7.90
2022-11-12T22:08:57.518Z,7.80
2022-11-12T22:11:25.965Z,7.80
2022-11-12T22:13:52.698Z,7.90
2022-11-12T22:16:22.265Z,7.90
2022-11-12T22:18:51.017Z,7.90
2022-11-12T22:21:20.228Z,8.00
2022-11-12T22:23:46.908Z,8.00
2022-11-12T22:26:16.019Z,8.00
2022-11-12T22:28:42.736Z,8.00
2022-11-12T22:31:17.864Z,8.00
2022-11-12T22:33:44.700Z,8.00
2022-11-12T22:36:16.125Z,8.00
2022-11-12T22:38:47.139Z,8.00
2022-11-12T22:41:19.024Z,8.00
2022-11-12T22:43:50.140Z,8.00
2022-11-12T22:46:22.737Z,8.00
2022-11-12T22:48:49.520Z,7.90
2022-11-12T22:51:18.916Z,7.90
2022-11-12T22:53:46.093Z,7.80
2022-11-12T22:56:15.754Z,7.90
2022-11-12T22:58:44.400Z,7.90
2022-11-12T23:01:19.199Z,7.90
2022-11-12T23:03:45.904Z,7.90
2022-11-12T23:06:12.537Z,7.90
2022-11-12T23:08:39.250Z,7.90
2022-11-12T23:11:11.713Z,7.90
2022-11-12T23:13:38.942Z,7.90
2022-11-12T23:16:08.305Z,7.80
2022-11-12T23:18:35.623Z,7.80
2022-11-12T23:21:04.738Z,7.80
2022-11-12T23:23:31.898Z,7.70
2022-11-12T23:26:04.028Z,7.70
2022-11-12T23:28:31.288Z,7.70
2022-11-12T23:30:58.228Z,7.70
2022-11-12T23:33:24.850Z,7.70
2022-11-12T23:35:51.653Z,7.70
2022-11-12T23:38:18.304Z,7.70
2022-11-12T23:40:55.643Z,7.70
2022-11-12T23:43:22.406Z,7.70
2022-11-12T23:45:53.256Z,7.80
2022-11-12T23:48:20.799Z,7.80
2022-11-12T23:50:49.843Z,7.80
2022-11-12T23:53:17.283Z,7.90
2022-11-12T23:55:44.477Z,7.80
2022-11-12T23:58:11.140Z,7.90
